Time;durP1;ratioP1;P1;durP2;ratioP2;P2;SDS_P1;SDS_P2;PMS_P1;PMS_P2;Temp;Humidity;BMP_temperature;BMP_pressure;BME280_temperature;BME280_humidity;BME280_pressure;Samples;Min_cycle;Max_cycle;Signal;HPM_P1;HPM_P2
2022/07/27 00:00:38;;;;;;;;;;;;;;;30.47;40.83;100073.60;105374;1300;60026;-81
2022/07/27 00:03:03;;;;;;;;;;;;;;;30.47;40.69;100074.87;105286;1299;75808;-81
2022/07/27 00:05:29;;;;;;;;;;;;;;;30.47;40.90;100075.41;105292;1298;61265;-81
2022/07/27 00:07:54;;;;;;;;;;;;;;;30.48;40.77;100077.34;105305;1300;61290;-81
2022/07/27 00:10:19;;;;;;;;;;;;;;;30.47;40.91;100080.32;105266;1300;61470;-81
2022/07/27 00:12:45;;;;;;;;;;;;;;;30.47;40.88;100082.54;105422;1300;61269;-81
2022/07/27 00:15:11;;;;;;;;;;;;;;;30.47;40.74;100083.61;105223;1300;59376;-81
2022/07/27 00:17:37;;;;;;;;;;;;;;;30.47;40.74;100085.29;105264;1300;61191;-81
2022/07/27 00:20:02;;;;;;;;;;;;;;;30.47;40.89;100081.31;105292;1300;61362;-81
2022/07/27 00:22:28;;;;;;;;;;;;;;;30.47;40.93;100081.77;105268;1300;61278;-81
2022/07/27 00:24:53;;;;;;;;;;;;;;;30.47;41.06;100085.84;105363;1300;61290;-81
2022/07/27 00:27:19;;;;;;;;;;;;;;;30.47;40.91;100085.12;105395;1300;61252;-81
2022/07/27 00:29:44;;;;;;;;;;;;;;;30.47;40.97;100086.39;105356;1300;61214;-81
2022/07/27 00:32:10;;;;;;;;;;;;;;;30.47;40.95;100088.02;105204;1300;61349;-82
2022/07/27 00:34:35;;;;;;;;;;;;;;;30.46;40.92;100090.23;105211;1300;61269;-82
2022/07/27 00:37:01;;;;;;;;;;;;;;;30.46;40.96;100088.21;105336;1300;61355;-81
2022/07/27 00:39:26;;;;;;;;;;;;;;;30.46;40.98;100084.98;105421;1299;61750;-82
2022/07/27 00:41:52;;;;;;;;;;;;;;;30.46;40.83;100083.39;105310;1300;61364;-81
2022/07/27 00:44:27;;;;;;;;;;;;;;;30.46;40.92;100084.44;105361;1299;59348;-82
2022/07/27 00:46:53;;;;;;;;;;;;;;;30.46;40.96;100086.45;105282;1300;74558;-82
2022/07/27 00:49:18;;;;;;;;;;;;;;;30.45;40.90;100086.88;105273;1300;61457;-83
2022/07/27 00:51:43;;;;;;;;;;;;;;;30.46;41.05;100089.38;105353;1300;61317;-83
2022/07/27 00:54:09;;;;;;;;;;;;;;;30.46;41.11;100085.95;105304;1300;61244;-83
2022/07/27 00:56:35;;;;;;;;;;;;;;;30.46;40.89;100091.40;105311;1300;61255;-82
2022/07/27 00:59:00;;;;;;;;;;;;;;;30.45;40.93;100094.33;105262;1300;73918;-82
2022/07/27 01:01:26;;;;;;;;;;;;;;;30.46;41.01;100095.94;105270;1300;61431;-82
2022/07/27 01:03:51;;;;;;;;;;;;;;;30.45;40.94;100100.20;105255;1300;61272;-82
2022/07/27 01:06:17;;;;;;;;;;;;;;;30.45;41.08;100107.08;105406;1300;61950;-82
2022/07/27 01:08:43;;;;;;;;;;;;;;;30.44;41.00;100109.86;105283;1300;61217;-82
2022/07/27 01:11:08;;;;;;;;;;;;;;;30.45;41.01;100117.08;105262;1300;72632;-82
2022/07/27 01:13:34;;;;;;;;;;;;;;;30.45;41.08;100119.80;105362;1300;61287;-82
2022/07/27 01:15:59;;;;;;;;;;;;;;;30.45;41.12;100117.29;105237;1299;61256;-82
2022/07/27 01:18:26;;;;;;;;;;;;;;;30.44;41.05;100112.04;105204;1300;61284;-82
2022/07/27 01:20:52;;;;;;;;;;;;;;;30.44;41.10;100111.16;105225;1300;61292;-82
2022/07/27 01:23:17;;;;;;;;;;;;;;;30.44;40.99;100108.83;105251;1299;59393;-82
2022/07/27 01:25:43;;;;;;;;;;;;;;;30.44;40.98;100115.35;105324;1300;61332;-82
2022/07/27 01:28:08;;;;;;;;;;;;;;;30.45;40.90;100113.65;105291;1300;61295;-82
2022/07/27 01:30:34;;;;;;;;;;;;;;;30.44;41.06;100110.23;105345;1301;61274;-82
2022/07/27 01:33:03;;;;;;;;;;;;;;;30.44;40.99;100110.45;105310;1300;61275;-82
2022/07/27 01:35:28;;;;;;;;;;;;;;;30.43;41.00;100105.63;105194;1300;74628;-83
2022/07/27 01:37:54;;;;;;;;;;;;;;;30.44;41.21;100105.92;105295;1300;61635;-83
2022/07/27 01:40:20;;;;;;;;;;;;;;;30.43;41.12;100106.85;105282;1300;61316;-83
2022/07/27 01:42:45;;;;;;;;;;;;;;;30.43;40.91;100106.67;105303;1299;61133;-83
2022/07/27 01:45:11;;;;;;;;;;;;;;;30.43;41.16;100108.31;105258;1300;61274;-83
2022/07/27 01:47:36;;;;;;;;;;;;;;;30.44;41.16;100108.85;105385;1300;61416;-83
2022/07/27 01:50:02;;;;;;;;;;;;;;;30.43;41.18;100107.25;105307;1300;61433;-83
2022/07/27 01:52:27;;;;;;;;;;;;;;;30.43;41.04;100101.81;105291;1299;61397;-83
2022/07/27 01:54:53;;;;;;;;;;;;;;;30.43;41.25;100094.59;105291;1300;61242;-83
2022/07/27 01:57:18;;;;;;;;;;;;;;;30.43;41.14;100092.79;105332;1300;61285;-83
2022/07/27 01:59:44;;;;;;;;;;;;;;;30.43;41.13;100093.50;105373;1300;61275;-83
2022/07/27 02:02:09;;;;;;;;;;;;;;;30.43;41.24;100097.50;105275;1300;61336;-83
2022/07/27 02:04:35;;;;;;;;;;;;;;;30.42;41.25;100105.90;105320;1300;61379;-83
2022/07/27 02:07:00;;;;;;;;;;;;;;;30.42;41.18;100103.01;105328;1300;61246;-82
2022/07/27 02:09:25;;;;;;;;;;;;;;;30.42;41.12;100098.48;105317;1300;61403;-82
2022/07/27 02:14:35;;;;;;;;;;;;;;;30.42;41.07;100092.52;105283;1300;61356;-82
2022/07/27 02:17:01;;;;;;;;;;;;;;;30.42;41.19;100099.96;105307;1300;61278;-82
2022/07/27 02:19:27;;;;;;;;;;;;;;;30.42;41.16;100099.23;105313;1300;61250;-82
2022/07/27 02:21:53;;;;;;;;;;;;;;;30.42;41.26;100103.05;105298;1300;61272;-82
2022/07/27 02:24:18;;;;;;;;;;;;;;;30.42;41.20;100100.52;105266;1300;61319;-82
2022/07/27 02:26:44;;;;;;;;;;;;;;;30.41;41.17;100100.74;105329;1299;61323;-82
2022/07/27 02:29:09;;;;;;;;;;;;;;;30.42;41.29;100103.62;105331;1300;61175;-82
2022/07/27 02:31:35;;;;;;;;;;;;;;;30.41;41.23;100100.06;105361;1300;63158;-82
2022/07/27 02:34:00;;;;;;;;;;;;;;;30.41;41.24;100105.13;105345;1300;61293;-82
2022/07/27 02:36:27;;;;;;;;;;;;;;;30.41;41.30;100104.05;105291;1300;61302;-82
2022/07/27 02:38:54;;;;;;;;;;;;;;;30.41;41.09;100104.42;105282;1300;61230;-82
2022/07/27 02:41:19;;;;;;;;;;;;;;;30.41;41.12;100104.08;105199;1300;61272;-82
2022/07/27 02:43:45;;;;;;;;;;;;;;;30.41;41.31;100100.66;105314;1300;61347;-82
2022/07/27 02:46:11;;;;;;;;;;;;;;;30.41;41.27;100100.27;105327;1299;61256;-82
2022/07/27 02:48:36;;;;;;;;;;;;;;;30.40;41.20;100098.51;105299;1300;61724;-82
2022/07/27 02:51:02;;;;;;;;;;;;;;;30.41;41.17;100103.79;105216;1300;61374;-82
2022/07/27 02:53:28;;;;;;;;;;;;;;;30.41;41.20;100106.27;105283;1300;61326;-82
2022/07/27 02:55:54;;;;;;;;;;;;;;;30.40;41.30;100108.52;105161;1300;61268;-82
2022/07/27 02:58:20;;;;;;;;;;;;;;;30.41;41.42;100109.40;105362;1300;61390;-82
2022/07/27 03:00:45;;;;;;;;;;;;;;;30.41;41.45;100110.83;105256;1300;61282;-82
2022/07/27 03:03:11;;;;;;;;;;;;;;;30.41;41.31;100113.21;105356;1300;61335;-82
2022/07/27 03:05:38;;;;;;;;;;;;;;;30.40;41.37;100114.30;105228;1300;61330;-82
2022/07/27 03:08:03;;;;;;;;;;;;;;;30.41;41.24;100118.28;105224;1299;61492;-82
2022/07/27 03:10:29;;;;;;;;;;;;;;;30.41;41.38;100117.20;105355;1299;61262;-82
2022/07/27 03:12:55;;;;;;;;;;;;;;;30.41;41.37;100114.31;105337;1300;61226;-82
2022/07/27 03:15:20;;;;;;;;;;;;;;;30.40;41.36;100118.35;105216;1299;61290;-82
2022/07/27 03:17:46;;;;;;;;;;;;;;;30.40;41.29;100123.05;105392;1299;61274;-82
2022/07/27 03:20:11;;;;;;;;;;;;;;;30.40;41.41;100125.05;105349;1300;62103;-82
2022/07/27 03:22:37;;;;;;;;;;;;;;;30.40;41.23;100126.86;105233;1300;61259;-82
2022/07/27 03:25:02;;;;;;;;;;;;;;;30.40;41.40;100123.80;105318;1298;61415;-82
2022/07/27 03:27:28;;;;;;;;;;;;;;;30.40;41.34;100126.11;105280;1300;61243;-82
2022/07/27 03:29:54;;;;;;;;;;;;;;;30.41;41.42;100126.63;105351;1300;61358;-82
2022/07/27 03:32:19;;;;;;;;;;;;;;;30.41;41.41;100122.27;105296;1299;74715;-82
2022/07/27 03:34:44;;;;;;;;;;;;;;;30.41;41.38;100126.79;105339;1298;61271;-82
2022/07/27 03:37:10;;;;;;;;;;;;;;;30.41;41.31;100122.77;105279;1300;61272;-83
2022/07/27 03:39:35;;;;;;;;;;;;;;;30.41;41.34;100123.31;105272;1300;61262;-83
2022/07/27 03:42:01;;;;;;;;;;;;;;;30.41;41.31;100126.21;105359;1300;60100;-83
2022/07/27 03:44:26;;;;;;;;;;;;;;;30.41;41.43;100129.80;105233;1300;60452;-82
2022/07/27 03:46:52;;;;;;;;;;;;;;;30.41;41.34;100133.11;105285;1299;61367;-82
2022/07/27 03:49:18;;;;;;;;;;;;;;;30.41;41.38;100136.22;105282;1298;61262;-82
2022/07/27 03:51:43;;;;;;;;;;;;;;;30.41;41.27;100138.73;105264;1300;61991;-82
2022/07/27 03:54:09;;;;;;;;;;;;;;;30.41;41.41;100135.59;105302;1300;61201;-82
2022/07/27 03:56:34;;;;;;;;;;;;;;;30.42;41.47;100136.13;105252;1300;74941;-82
2022/07/27 03:59:00;;;;;;;;;;;;;;;30.41;41.40;100141.62;105269;1300;61287;-82
2022/07/27 04:01:25;;;;;;;;;;;;;;;30.41;41.42;100146.85;105329;1298;61255;-82
2022/07/27 04:03:51;;;;;;;;;;;;;;;30.41;41.40;100148.66;105294;1300;61150;-82
2022/07/27 04:06:17;;;;;;;;;;;;;;;30.42;41.35;100145.94;105242;1300;61300;-82
2022/07/27 04:08:42;;;;;;;;;;;;;;;30.42;41.41;100146.65;105303;1300;62074;-82
2022/07/27 04:11:08;;;;;;;;;;;;;;;30.41;41.55;100141.25;105264;1298;61388;-82
2022/07/27 04:13:33;;;;;;;;;;;;;;;30.42;41.45;100142.63;105355;1300;61377;-82
2022/07/27 04:15:59;;;;;;;;;;;;;;;30.42;41.42;100145.17;105177;1300;61394;-82
2022/07/27 04:18:24;;;;;;;;;;;;;;;30.41;41.32;100146.66;105367;1298;61291;-82
2022/07/27 04:20:50;;;;;;;;;;;;;;;30.42;41.49;100152.77;105405;1300;61403;-82
2022/07/27 04:23:15;;;;;;;;;;;;;;;30.43;41.50;100149.98;105359;1300;61287;-82
2022/07/27 04:25:41;;;;;;;;;;;;;;;30.43;41.58;100148.89;105223;1300;61383;-82
2022/07/27 04:28:07;;;;;;;;;;;;;;;30.42;41.27;100146.00;105327;1300;61261;-82
2022/07/27 04:30:32;;;;;;;;;;;;;;;30.42;41.50;100143.81;105264;1299;61368;-82
2022/07/27 04:32:58;;;;;;;;;;;;;;;30.43;41.40;100140.52;105269;1300;61284;-82
2022/07/27 04:35:24;;;;;;;;;;;;;;;30.42;41.29;100138.96;105371;1300;61268;-82
2022/07/27 04:37:49;;;;;;;;;;;;;;;30.43;41.30;100142.90;105356;1300;61161;-82
2022/07/27 04:40:15;;;;;;;;;;;;;;;30.42;41.32;100139.46;105244;1300;61282;-82
2022/07/27 04:42:41;;;;;;;;;;;;;;;30.42;41.31;100138.92;105206;1300;61300;-82
2022/07/27 04:45:07;;;;;;;;;;;;;;;30.43;41.28;100138.00;105347;1300;61352;-83
2022/07/27 04:47:32;;;;;;;;;;;;;;;30.43;41.08;100135.08;105354;1300;62464;-83
2022/07/27 04:49:58;;;;;;;;;;;;;;;30.43;41.26;100138.34;105323;1300;61225;-82
2022/07/27 04:52:23;;;;;;;;;;;;;;;30.43;41.28;100138.54;105305;1300;61231;-82
2022/07/27 04:54:52;;;;;;;;;;;;;;;30.43;41.05;100133.80;105237;1299;61323;-82
2022/07/27 04:57:18;;;;;;;;;;;;;;;30.43;41.07;100136.13;105253;1300;61176;-82
2022/07/27 04:59:44;;;;;;;;;;;;;;;30.43;41.27;100139.02;105291;1300;61392;-82
2022/07/27 05:02:09;;;;;;;;;;;;;;;30.44;41.10;100141.15;105345;1300;62546;-82
2022/07/27 05:04:35;;;;;;;;;;;;;;;30.44;40.99;100145.85;105346;1300;61245;-82
2022/07/27 05:07:00;;;;;;;;;;;;;;;30.44;40.98;100149.83;105333;1300;62146;-82
2022/07/27 05:09:26;;;;;;;;;;;;;;;30.44;40.91;100149.25;105315;1299;61253;-82
2022/07/27 05:11:52;;;;;;;;;;;;;;;30.45;40.92;100153.57;105366;1300;61865;-82
2022/07/27 05:14:17;;;;;;;;;;;;;;;30.46;41.10;100159.47;105242;1299;61259;-83
2022/07/27 05:16:42;;;;;;;;;;;;;;;30.45;40.82;100165.21;105293;1299;61312;-83
2022/07/27 05:19:08;;;;;;;;;;;;;;;30.46;40.91;100171.24;105310;1300;61384;-83
2022/07/27 05:21:33;;;;;;;;;;;;;;;30.46;40.88;100176.27;105249;1300;61246;-83
2022/07/27 05:23:59;;;;;;;;;;;;;;;30.47;40.70;100175.12;105168;1300;61415;-83
2022/07/27 05:26:24;;;;;;;;;;;;;;;30.48;40.84;100176.14;105261;1298;61362;-82
2022/07/27 05:28:50;;;;;;;;;;;;;;;30.48;40.71;100169.39;105259;1300;61473;-82
2022/07/27 05:31:17;;;;;;;;;;;;;;;30.48;40.78;100171.33;105284;1299;61278;-82
2022/07/27 05:33:43;;;;;;;;;;;;;;;30.48;40.75;100174.76;105290;1299;61298;-83
2022/07/27 05:36:08;;;;;;;;;;;;;;;30.49;40.68;100175.98;105348;1300;61243;-83
2022/07/27 05:38:38;;;;;;;;;;;;;;;30.49;40.58;100177.75;105317;1299;61290;-83
2022/07/27 05:41:05;;;;;;;;;;;;;;;30.50;40.63;100173.69;105266;1299;74155;-82
2022/07/27 05:43:30;;;;;;;;;;;;;;;30.50;40.64;100176.01;105300;1300;61210;-82
2022/07/27 05:45:56;;;;;;;;;;;;;;;30.51;40.64;100175.77;105250;1298;61225;-82
2022/07/27 05:48:22;;;;;;;;;;;;;;;30.51;40.59;100177.48;105239;1299;61265;-82
2022/07/27 05:50:47;;;;;;;;;;;;;;;30.51;40.55;100176.40;105269;1300;61204;-82
2022/07/27 05:53:13;;;;;;;;;;;;;;;30.52;40.40;100176.29;105269;1300;61291;-82
2022/07/27 05:55:38;;;;;;;;;;;;;;;30.52;40.57;100171.71;105309;1300;61419;-81
2022/07/27 05:58:05;;;;;;;;;;;;;;;30.53;40.46;100175.97;105277;1300;61372;-82
2022/07/27 06:00:30;;;;;;;;;;;;;;;30.53;40.36;100176.13;105168;1299;61294;-83
2022/07/27 06:02:56;;;;;;;;;;;;;;;30.54;40.46;100180.77;105280;1300;61242;-81
2022/07/27 06:05:22;;;;;;;;;;;;;;;30.55;40.35;100180.52;105336;1298;61291;-82
2022/07/27 06:08:07;;;;;;;;;;;;;;;30.55;40.45;100175.87;105324;1300;61242;-82
2022/07/27 06:10:33;;;;;;;;;;;;;;;30.56;40.36;100171.95;105319;1300;72921;-82
2022/07/27 06:12:58;;;;;;;;;;;;;;;30.58;40.24;100176.52;105245;1300;61268;-83
2022/07/27 06:15:24;;;;;;;;;;;;;;;30.57;40.23;100177.48;105307;1300;61376;-82
2022/07/27 06:17:52;;;;;;;;;;;;;;;30.58;40.24;100175.91;105278;1299;62129;-82
2022/07/27 06:20:17;;;;;;;;;;;;;;;30.59;40.02;100183.04;105330;1300;61310;-83
2022/07/27 06:22:47;;;;;;;;;;;;;;;30.60;40.27;100181.85;105315;1299;61431;-82
2022/07/27 06:25:13;;;;;;;;;;;;;;;30.61;40.22;100178.36;105291;1300;61290;-82
2022/07/27 06:27:39;;;;;;;;;;;;;;;30.61;39.99;100180.98;104547;1300;1042655;-82
2022/07/27 06:30:05;;;;;;;;;;;;;;;30.62;40.02;100180.39;105225;1300;61198;-82
2022/07/27 06:32:30;;;;;;;;;;;;;;;30.63;39.98;100180.63;105353;1298;61352;-82
2022/07/27 06:34:55;;;;;;;;;;;;;;;30.63;40.01;100182.23;105313;1298;61223;-82
2022/07/27 06:37:21;;;;;;;;;;;;;;;30.64;40.05;100183.95;105349;1300;61304;-81
2022/07/27 06:39:47;;;;;;;;;;;;;;;30.65;39.97;100184.21;105269;1299;61368;-81
2022/07/27 06:42:13;;;;;;;;;;;;;;;30.66;40.01;100187.37;105254;1300;61416;-81
2022/07/27 06:44:39;;;;;;;;;;;;;;;30.66;39.85;100184.80;105228;1299;61179;-81
2022/07/27 06:47:06;;;;;;;;;;;;;;;30.66;40.06;100183.09;105304;1299;62029;-81
2022/07/27 06:49:32;;;;;;;;;;;;;;;30.67;39.88;100183.40;105230;1299;61229;-81
2022/07/27 06:51:57;;;;;;;;;;;;;;;30.67;39.89;100177.71;105267;1300;61378;-81
2022/07/27 06:54:24;;;;;;;;;;;;;;;30.68;39.89;100179.07;105315;1300;61230;-83
2022/07/27 06:56:49;;;;;;;;;;;;;;;30.68;39.84;100171.98;105327;1298;61263;-83
2022/07/27 06:59:15;;;;;;;;;;;;;;;30.69;39.86;100175.21;105418;1298;61277;-83
2022/07/27 07:01:40;;;;;;;;;;;;;;;30.69;39.98;100176.06;105262;1300;61133;-83
2022/07/27 07:04:06;;;;;;;;;;;;;;;30.69;39.78;100174.38;105180;1300;61349;-83
2022/07/27 07:06:31;;;;;;;;;;;;;;;30.69;39.81;100174.38;105266;1299;61257;-83
2022/07/27 07:08:57;;;;;;;;;;;;;;;30.70;39.71;100174.14;105220;1298;61476;-83
2022/07/27 07:11:22;;;;;;;;;;;;;;;30.70;39.87;100176.66;105308;1300;61259;-83
2022/07/27 07:13:48;;;;;;;;;;;;;;;30.71;39.83;100176.41;105313;1298;61503;-83
2022/07/27 07:16:13;;;;;;;;;;;;;;;30.70;39.76;100178.60;105220;1299;61390;-83
2022/07/27 07:18:39;;;;;;;;;;;;;;;30.71;39.76;100177.09;105263;1300;61278;-83
2022/07/27 07:21:04;;;;;;;;;;;;;;;30.71;39.85;100176.33;105188;1300;61962;-83
2022/07/27 07:23:30;;;;;;;;;;;;;;;30.71;39.72;100176.68;105372;1300;61277;-83
2022/07/27 07:25:55;;;;;;;;;;;;;;;30.71;39.69;100178.73;105267;1300;61446;-83
2022/07/27 07:28:22;;;;;;;;;;;;;;;30.70;39.73;100179.89;105299;1300;61247;-83
2022/07/27 07:30:48;;;;;;;;;;;;;;;30.70;39.61;100181.32;105207;1299;61304;-83
2022/07/27 07:33:13;;;;;;;;;;;;;;;30.70;39.67;100181.88;105244;1299;61339;-83
2022/07/27 07:35:40;;;;;;;;;;;;;;;30.70;39.57;100181.87;105332;1300;61366;-83
2022/07/27 07:38:05;;;;;;;;;;;;;;;30.70;39.49;100180.60;105347;1300;61621;-83
2022/07/27 07:40:31;;;;;;;;;;;;;;;30.71;39.39;100185.14;105308;1300;61265;-83
2022/07/27 07:42:58;;;;;;;;;;;;;;;30.70;39.60;100186.63;105261;1299;61725;-83
2022/07/27 07:45:24;;;;;;;;;;;;;;;30.71;39.33;100186.77;105218;1300;61181;-83
2022/07/27 07:47:51;;;;;;;;;;;;;;;30.70;39.60;100186.98;105211;1300;61274;-82
2022/07/27 07:50:16;;;;;;;;;;;;;;;30.70;39.61;100186.27;105247;1298;59651;-83
2022/07/27 07:52:42;;;;;;;;;;;;;;;30.70;39.51;100181.77;105248;1299;61227;-82
2022/07/27 07:55:08;;;;;;;;;;;;;;;30.70;39.55;100185.73;105207;1300;61375;-82
2022/07/27 07:57:33;;;;;;;;;;;;;;;30.70;39.56;100184.97;105272;1299;61272;-82
2022/07/27 07:59:59;;;;;;;;;;;;;;;30.70;39.43;100186.09;105281;1300;61263;-83
2022/07/27 08:02:24;;;;;;;;;;;;;;;30.70;39.29;100186.30;105182;1300;61367;-82
2022/07/27 08:04:50;;;;;;;;;;;;;;;30.70;39.54;100187.32;105208;1300;61384;-83
2022/07/27 08:07:16;;;;;;;;;;;;;;;30.71;39.46;100186.02;105236;1300;61258;-82
2022/07/27 08:09:43;;;;;;;;;;;;;;;30.71;39.48;100181.48;105196;1300;61326;-82
2022/07/27 08:12:09;;;;;;;;;;;;;;;30.72;39.45;100182.09;105302;1300;61186;-83
2022/07/27 08:14:35;;;;;;;;;;;;;;;30.72;39.26;100183.17;105313;1300;61212;-83
2022/07/27 08:17:00;;;;;;;;;;;;;;;30.72;39.39;100182.63;105283;1298;61377;-83
2022/07/27 08:19:26;;;;;;;;;;;;;;;30.72;39.45;100178.98;105288;1299;61243;-83
2022/07/27 08:21:51;;;;;;;;;;;;;;;30.73;39.40;100176.15;105277;1300;61211;-82
2022/07/27 08:24:17;;;;;;;;;;;;;;;30.73;39.38;100177.77;105253;1299;61297;-82
2022/07/27 08:26:42;;;;;;;;;;;;;;;30.73;39.37;100179.92;105346;1300;61807;-82
2022/07/27 08:29:08;;;;;;;;;;;;;;;30.73;39.34;100181.91;105192;1300;61405;-82
2022/07/27 08:31:33;;;;;;;;;;;;;;;30.73;39.43;100177.16;105269;1300;61349;-82
2022/07/27 08:33:59;;;;;;;;;;;;;;;30.73;39.34;100179.16;105274;1298;61244;-81
2022/07/27 08:36:24;;;;;;;;;;;;;;;30.73;39.32;100180.94;105233;1299;61256;-82
2022/07/27 08:38:50;;;;;;;;;;;;;;;30.74;39.47;100181.10;105203;1300;61334;-82
2022/07/27 08:41:15;;;;;;;;;;;;;;;30.74;39.36;100186.18;105340;1298;61285;-83
2022/07/27 08:43:41;;;;;;;;;;;;;;;30.74;39.44;100183.63;105308;1298;61240;-84
2022/07/27 08:46:06;;;;;;;;;;;;;;;30.74;39.29;100185.42;105353;1300;61157;-84
2022/07/27 08:48:32;;;;;;;;;;;;;;;30.74;39.53;100187.02;105239;1298;61371;-84
2022/07/27 08:50:58;;;;;;;;;;;;;;;30.75;39.35;100185.86;105297;1298;61320;-84
2022/07/27 08:53:23;;;;;;;;;;;;;;;30.74;39.43;100184.81;105251;1300;61406;-82
2022/07/27 08:55:49;;;;;;;;;;;;;;;30.75;39.27;100183.14;105228;1300;62055;-84
2022/07/27 08:58:14;;;;;;;;;;;;;;;30.75;39.42;100184.56;105291;1298;61307;-82
2022/07/27 09:00:41;;;;;;;;;;;;;;;30.75;39.38;100183.46;105196;1299;61294;-83
2022/07/27 09:03:09;;;;;;;;;;;;;;;30.75;39.22;100181.51;105175;1300;61407;-81
2022/07/27 09:05:40;;;;;;;;;;;;;;;30.75;39.32;100179.67;105211;1300;61290;-83
2022/07/27 09:08:09;;;;;;;;;;;;;;;30.75;39.44;100182.68;105235;1300;61582;-82
2022/07/27 09:10:37;;;;;;;;;;;;;;;30.75;39.35;100180.53;105329;1300;72706;-82
2022/07/27 09:13:35;;;;;;;;;;;;;;;30.76;39.44;100178.49;105171;1300;75592;-82
2022/07/27 09:16:05;;;;;;;;;;;;;;;30.76;39.36;100176.83;104827;1305;61062;-82
2022/07/27 09:18:32;;;;;;;;;;;;;;;30.76;39.38;100179.13;104715;1305;61279;-82
2022/07/27 09:21:10;;;;;;;;;;;;;;;30.76;39.34;100178.63;104687;1305;73563;-82
2022/07/27 09:23:39;;;;;;;;;;;;;;;30.76;39.36;100174.94;104826;1305;75755;-82
2022/07/27 09:26:08;;;;;;;;;;;;;;;30.76;39.32;100173.48;104845;1304;61239;-82
2022/07/27 09:28:34;;;;;;;;;;;;;;;30.77;39.47;100175.83;104763;1304;61419;-82
2022/07/27 09:31:06;;;;;;;;;;;;;;;30.77;39.30;100177.80;104799;1306;61239;-82
2022/07/27 09:33:39;;;;;;;;;;;;;;;30.77;39.42;100173.98;104798;1306;74761;-82
2022/07/27 09:36:04;;;;;;;;;;;;;;;30.77;39.22;100176.75;104628;1305;61283;-82
2022/07/27 09:38:30;;;;;;;;;;;;;;;30.77;39.30;100177.48;104603;1307;61365;-82
2022/07/27 09:41:03;;;;;;;;;;;;;;;30.78;39.24;100173.59;104548;1306;61985;-82
2022/07/27 09:43:29;;;;;;;;;;;;;;;30.77;39.41;100173.61;104605;1308;74498;-82
2022/07/27 09:45:54;;;;;;;;;;;;;;;30.77;39.22;100173.27;104465;1308;61297;-82
2022/07/27 09:48:21;;;;;;;;;;;;;;;30.77;39.41;100171.69;104477;1308;59408;-82
2022/07/27 09:50:58;;;;;;;;;;;;;;;30.77;39.34;100171.48;104677;1307;61256;-82
2022/07/27 09:53:25;;;;;;;;;;;;;;;30.77;39.25;100172.90;105151;1300;75964;-82
2022/07/27 09:55:56;;;;;;;;;;;;;;;30.77;39.18;100173.98;105255;1299;61160;-82
2022/07/27 09:58:22;;;;;;;;;;;;;;;30.76;39.21;100170.79;105062;1300;61433;-82
2022/07/27 10:00:54;;;;;;;;;;;;;;;30.76;39.31;100165.13;105044;1299;59329;-82
2022/07/27 10:03:20;;;;;;;;;;;;;;;30.77;39.25;100166.37;105255;1299;74731;-81
2022/07/27 10:05:45;;;;;;;;;;;;;;;30.77;39.25;100164.90;105364;1298;61291;-82
2022/07/27 10:08:11;;;;;;;;;;;;;;;30.77;39.32;100156.35;105303;1300;61303;-82
2022/07/27 10:10:36;;;;;;;;;;;;;;;30.78;39.20;100150.85;105255;1300;61402;-82
2022/07/27 10:13:01;;;;;;;;;;;;;;;30.77;39.32;100145.98;105348;1297;61493;-82
2022/07/27 10:15:27;;;;;;;;;;;;;;;30.77;39.24;100148.00;105252;1300;61435;-82
2022/07/27 10:17:55;;;;;;;;;;;;;;;30.78;39.04;100145.41;105375;1299;61359;-82
2022/07/27 10:20:21;;;;;;;;;;;;;;;30.78;39.08;100141.17;105298;1298;61626;-82
2022/07/27 10:22:50;;;;;;;;;;;;;;;30.78;39.05;100142.85;105306;1300;61378;-82
2022/07/27 10:25:15;;;;;;;;;;;;;;;30.79;39.13;100143.33;105317;1299;75621;-81
2022/07/27 10:27:41;;;;;;;;;;;;;;;30.78;39.20;100145.88;105243;1299;61656;-82
2022/07/27 10:30:06;;;;;;;;;;;;;;;30.78;39.10;100141.93;105207;1300;61363;-82
2022/07/27 10:32:32;;;;;;;;;;;;;;;30.78;39.13;100139.58;105303;1299;61235;-82
2022/07/27 10:34:58;;;;;;;;;;;;;;;30.78;38.98;100137.36;105210;1299;61399;-81
2022/07/27 10:37:25;;;;;;;;;;;;;;;30.78;39.03;100135.93;105346;1300;61551;-81
2022/07/27 10:40:32;;;;;;;;;;;;;;;30.78;38.98;100139.76;105159;1300;61370;-82
2022/07/27 10:42:36;;;;;;;;;;;;;;;30.77;39.24;100138.90;105230;1299;61148;-82
2022/07/27 10:45:04;;;;;;;;;;;;;;;30.78;39.17;100139.08;105289;1300;61226;-82
2022/07/27 10:47:51;;;;;;;;;;;;;;;30.77;39.11;100136.90;105252;1299;75795;-82
2022/07/27 10:50:20;;;;;;;;;;;;;;;30.78;39.19;100132.83;105249;1299;61301;-82
2022/07/27 10:52:53;;;;;;;;;;;;;;;30.77;39.27;100137.82;105329;1298;61157;-82
2022/07/27 10:55:31;;;;;;;;;;;;;;;30.77;39.12;100133.25;105172;1299;72890;-82
2022/07/27 10:58:08;;;;;;;;;;;;;;;30.78;39.19;100131.20;105136;1297;74843;-82
2022/07/27 11:00:54;;;;;;;;;;;;;;;30.78;39.23;100129.52;105170;1300;61087;-82
2022/07/27 11:03:32;;;;;;;;;;;;;;;30.79;39.15;100128.78;105161;1298;61126;-84
2022/07/27 11:05:57;;;;;;;;;;;;;;;30.79;39.10;100128.70;105995;1299;72750;-84
2022/07/27 11:08:26;;;;;;;;;;;;;;;30.80;39.27;100125.14;105052;1299;61597;-84
2022/07/27 11:10:52;;;;;;;;;;;;;;;30.82;39.30;100125.50;105919;1300;59377;-85
2022/07/27 11:13:17;;;;;;;;;;;;;;;30.82;39.35;100128.52;105092;1299;61323;-84
2022/07/27 11:16:09;;;;;;;;;;;;;;;30.83;39.39;100125.65;106043;1299;59174;-85
2022/07/27 11:18:35;;;;;;;;;;;;;;;30.84;39.23;100126.21;106024;1298;66084;-85
2022/07/27 11:21:20;;;;;;;;;;;;;;;30.86;39.39;100121.86;105267;1299;61304;-85
2022/07/27 11:23:46;;;;;;;;;;;;;;;30.87;39.29;100122.42;105127;1300;61227;-84
2022/07/27 11:26:12;;;;;;;;;;;;;;;30.88;39.17;100126.25;105167;1300;61142;-85
2022/07/27 11:28:37;;;;;;;;;;;;;;;30.89;39.29;100124.16;105236;1300;61307;-84
2022/07/27 11:31:03;;;;;;;;;;;;;;;30.89;39.19;100119.05;105088;1299;61268;-85
2022/07/27 11:33:30;;;;;;;;;;;;;;;30.89;39.13;100118.68;105111;1300;61230;-84
2022/07/27 11:35:59;;;;;;;;;;;;;;;30.89;39.19;100116.52;105119;1297;62223;-84
2022/07/27 11:38:25;;;;;;;;;;;;;;;30.89;39.22;100110.17;105224;1299;74746;-84
2022/07/27 11:40:51;;;;;;;;;;;;;;;30.89;39.03;100109.49;105260;1300;61286;-84
2022/07/27 11:43:36;;;;;;;;;;;;;;;30.88;39.12;100110.96;105204;1300;61264;-84
2022/07/27 11:46:21;;;;;;;;;;;;;;;30.88;39.18;100110.07;105330;1300;73556;-84
2022/07/27 11:48:47;;;;;;;;;;;;;;;30.88;39.08;100110.66;105168;1300;75384;-84
2022/07/27 11:51:16;;;;;;;;;;;;;;;30.88;39.13;100109.02;105077;1299;61779;-84
2022/07/27 11:53:42;;;;;;;;;;;;;;;30.88;39.13;100108.52;105070;1300;61352;-82
2022/07/27 11:56:07;;;;;;;;;;;;;;;30.88;39.05;100106.72;105257;1298;61835;-82
2022/07/27 11:58:33;;;;;;;;;;;;;;;30.87;39.17;100106.38;105303;1298;61675;-82
2022/07/27 12:00:59;;;;;;;;;;;;;;;30.88;38.98;100099.46;105250;1300;61289;-82
2022/07/27 12:03:28;;;;;;;;;;;;;;;30.88;39.18;100094.02;105054;1300;61364;-82
2022/07/27 12:05:58;;;;;;;;;;;;;;;30.88;39.05;100093.98;105115;1300;61354;-84
2022/07/27 12:08:23;;;;;;;;;;;;;;;30.87;39.04;100092.79;105181;1300;75956;-82
2022/07/27 12:10:55;;;;;;;;;;;;;;;30.88;39.06;100091.13;105352;1298;61268;-83
2022/07/27 12:13:21;;;;;;;;;;;;;;;30.87;39.00;100089.68;105469;1300;61274;-84
2022/07/27 12:15:54;;;;;;;;;;;;;;;30.88;39.04;100089.48;105438;1299;61272;-83
2022/07/27 12:18:20;;;;;;;;;;;;;;;30.88;39.05;100084.37;105454;1300;75778;-83
2022/07/27 12:20:47;;;;;;;;;;;;;;;30.88;39.10;100081.40;105568;1298;61353;-82
2022/07/27 12:23:13;;;;;;;;;;;;;;;30.89;39.06;100082.03;105492;1299;60022;-83
2022/07/27 12:25:40;;;;;;;;;;;;;;;30.89;39.24;100079.14;105360;1300;61379;-82